createdAt,value
2023-01-01T00:02:24.620Z,15.94
2023-01-01T00:04:51.438Z,15.82
2023-01-01T00:07:18.133Z,15.63
2023-01-01T00:10:03.510Z,15.48
2023-01-01T00:12:32.448Z,15.36
2023-01-01T00:14:59.310Z,15.21
2023-01-01T00:17:29.443Z,15.16
2023-01-01T00:19:56.225Z,15.00
2023-01-01T00:25:17.707Z,14.69
2023-01-01T00:27:44.667Z,14.60
2023-01-01T00:30:12.114Z,14.55
2023-01-01T00:32:38.989Z,14.57
2023-01-01T00:35:06.534Z,14.48
2023-01-01T00:37:33.337Z,14.57
2023-01-01T00:39:59.999Z,14.68
2023-01-01T00:42:26.748Z,14.61
2023-01-01T00:44:53.447Z,14.72
2023-01-01T00:47:20.111Z,14.64
2023-01-01T00:49:46.781Z,14.62
2023-01-01T00:52:13.874Z,14.61
2023-01-01T00:54:40.674Z,14.58
2023-01-01T00:57:07.410Z,14.63
2023-01-01T00:59:34.097Z,14.60
2023-01-01T01:02:01.296Z,14.66
2023-01-01T01:04:28.137Z,14.61
2023-01-01T01:06:54.971Z,14.64
2023-01-01T01:09:21.709Z,14.65
2023-01-01T01:11:48.437Z,14.63
2023-01-01T01:14:15.209Z,14.65
2023-01-01T01:16:42.115Z,14.58
2023-01-01T01:19:13.833Z,14.61
2023-01-01T01:21:41.112Z,14.64
2023-01-01T01:24:08.040Z,14.62
2023-01-01T01:26:36.548Z,14.63
2023-01-01T01:29:04.163Z,14.55
2023-01-01T01:31:34.504Z,14.52
2023-01-01T01:34:02.048Z,14.55
2023-01-01T01:36:29.242Z,14.50
2023-01-01T01:38:57.003Z,14.44
2023-01-01T01:41:28.306Z,14.43
2023-01-01T01:44:03.111Z,14.49
2023-01-01T01:46:43.247Z,14.45
2023-01-01T01:49:29.705Z,14.50
2023-01-01T01:51:56.942Z,14.42
2023-01-01T01:54:25.953Z,14.33
2023-01-01T01:57:02.805Z,14.33
2023-01-01T01:59:35.560Z,14.33
2023-01-01T02:02:02.746Z,14.38
2023-01-01T02:04:29.818Z,14.43
2023-01-01T02:06:57.132Z,14.31
2023-01-01T02:09:23.789Z,14.27
2023-01-01T02:11:50.691Z,14.27
2023-01-01T02:14:17.362Z,14.34
2023-01-01T02:16:50.514Z,14.29
2023-01-01T02:20:03.686Z,14.27
2023-01-01T02:23:04.536Z,14.28
2023-01-01T02:26:42.343Z,14.32
2023-01-01T02:29:23.838Z,14.23
2023-01-01T02:32:03.382Z,14.23
2023-01-01T02:34:37.511Z,14.19
2023-01-01T02:37:07.691Z,14.19
2023-01-01T02:39:39.299Z,14.15
2023-01-01T02:42:08.964Z,14.17
2023-01-01T02:44:40.426Z,14.14
2023-01-01T02:47:11.192Z,14.12
2023-01-01T02:49:47.126Z,14.04
2023-01-01T02:52:55.384Z,14.01
2023-01-01T02:55:53.184Z,14.02
2023-01-01T02:58:57.260Z,14.07
2023-01-01T03:01:40.294Z,14.03
2023-01-01T03:04:19.011Z,13.97
2023-01-01T03:07:06.278Z,13.97
2023-01-01T03:09:56.238Z,13.90
2023-01-01T03:12:50.825Z,13.95
2023-01-01T03:15:57.247Z,13.93
2023-01-01T03:18:47.181Z,13.86
2023-01-01T03:23:50.345Z,13.86
2023-01-01T03:26:21.218Z,13.86
2023-01-01T03:28:55.386Z,13.83
2023-01-01T03:31:26.104Z,13.89
2023-01-01T03:34:03.969Z,13.93
2023-01-01T03:36:37.223Z,13.89
2023-01-01T03:39:18.624Z,13.82
2023-01-01T03:41:58.585Z,13.86
2023-01-01T03:44:47.474Z,13.88
2023-01-01T03:47:14.818Z,13.81
2023-01-01T03:49:42.601Z,13.78
2023-01-01T03:52:26.799Z,13.82
2023-01-01T03:55:08.151Z,13.81
2023-01-01T03:58:08.065Z,13.77
2023-01-01T04:00:46.969Z,13.73
2023-01-01T04:03:18.684Z,13.81
2023-01-01T04:05:45.853Z,14.03
2023-01-01T04:08:14.989Z,14.04
2023-01-01T04:10:54.967Z,14.02
2023-01-01T04:13:21.632Z,13.99
2023-01-01T04:15:48.967Z,14.02
2023-01-01T04:18:15.726Z,14.08
2023-01-01T04:20:42.912Z,14.20
2023-01-01T04:23:09.745Z,14.09
2023-01-01T04:25:36.697Z,14.11
2023-01-01T04:28:03.642Z,14.39
2023-01-01T04:30:30.826Z,14.16
2023-01-01T04:32:57.719Z,14.31
2023-01-01T04:35:24.426Z,14.18
2023-01-01T04:37:51.213Z,14.24
2023-01-01T04:40:18.061Z,14.16
2023-01-01T04:42:44.776Z,14.13
2023-01-01T04:45:14.952Z,14.16
2023-01-01T04:47:41.925Z,14.13
2023-01-01T04:50:09.420Z,14.08
2023-01-01T04:52:36.384Z,14.12
2023-01-01T04:55:03.207Z,14.16
2023-01-01T04:57:30.977Z,14.12
2023-01-01T04:59:57.924Z,14.02
2023-01-01T05:02:24.693Z,13.97
2023-01-01T05:04:51.857Z,13.95
2023-01-01T05:07:19.570Z,14.08
2023-01-01T05:09:46.205Z,13.95
2023-01-01T05:12:12.865Z,13.92
2023-01-01T05:14:39.607Z,13.90
2023-01-01T05:17:06.368Z,14.08
2023-01-01T05:19:33.146Z,14.08
2023-01-01T05:22:03.984Z,14.01
2023-01-01T05:24:36.381Z,14.00
2023-01-01T05:27:03.289Z,14.03
2023-01-01T05:29:29.917Z,13.98
2023-01-01T05:31:56.576Z,13.94
2023-01-01T05:34:23.395Z,13.87
2023-01-01T05:36:50.012Z,13.95
2023-01-01T05:39:16.661Z,13.88
2023-01-01T05:41:43.301Z,13.89
2023-01-01T05:44:10.422Z,13.92
2023-01-01T05:46:37.196Z,13.87
2023-01-01T05:49:04.399Z,13.88
2023-01-01T05:53:58.724Z,13.89
2023-01-01T05:56:26.921Z,13.87
2023-01-01T05:58:55.043Z,13.87
2023-01-01T06:01:28.611Z,13.96
2023-01-01T06:03:57.124Z,13.90
2023-01-01T06:06:30.149Z,13.90
2023-01-01T06:09:00.600Z,13.85
2023-01-01T06:11:28.200Z,13.86
2023-01-01T06:13:57.816Z,13.89
2023-01-01T06:16:26.183Z,13.83
2023-01-01T06:18:52.978Z,13.89
2023-01-01T06:21:23.542Z,13.83
2023-01-01T06:23:50.587Z,13.87
2023-01-01T06:26:23.550Z,13.88
2023-01-01T06:28:50.883Z,13.78
2023-01-01T06:31:21.213Z,13.88
2023-01-01T06:33:50.829Z,13.88
2023-01-01T06:36:20.637Z,13.84
2023-01-01T06:38:50.299Z,13.97
2023-01-01T06:41:20.448Z,13.98
2023-01-01T06:43:48.212Z,13.92
2023-01-01T06:46:30.252Z,14.01
2023-01-01T06:49:04.671Z,13.99
2023-01-01T06:51:36.520Z,13.98
2023-01-01T06:54:05.268Z,13.92
2023-01-01T06:56:32.408Z,13.91
2023-01-01T06:58:59.771Z,13.96
2023-01-01T07:01:32.335Z,13.88
2023-01-01T07:04:02.377Z,13.91
2023-01-01T07:06:31.746Z,14.03
2023-01-01T07:08:58.538Z,13.99
2023-01-01T07:11:26.285Z,13.89
2023-01-01T07:13:53.506Z,13.92
2023-01-01T07:16:21.079Z,13.81
2023-01-01T07:18:49.173Z,13.79
2023-01-01T07:21:32.103Z,13.80
2023-01-01T07:24:05.030Z,13.81
2023-01-01T07:26:33.391Z,13.75
2023-01-01T07:29:08.578Z,13.72
2023-01-01T07:31:40.607Z,13.70
2023-01-01T07:34:13.349Z,13.66
2023-01-01T07:36:41.155Z,13.62
2023-01-01T07:39:08.173Z,13.56
2023-01-01T07:41:34.891Z,13.52
2023-01-01T07:44:02.378Z,13.36
2023-01-01T07:46:29.330Z,13.35
2023-01-01T07:48:57.048Z,13.37
2023-01-01T07:51:23.743Z,13.31
2023-01-01T07:53:51.292Z,13.25
2023-01-01T07:56:18.241Z,13.22
2023-01-01T07:58:44.973Z,13.23
2023-01-01T08:01:14.721Z,13.25
2023-01-01T08:03:42.072Z,13.21
2023-01-01T08:06:11.198Z,13.21
2023-01-01T08:08:38.555Z,13.20
2023-01-01T08:11:06.033Z,13.15
2023-01-01T08:13:32.663Z,13.18
2023-01-01T08:15:59.747Z,13.18
2023-01-01T08:18:26.659Z,13.20
2023-01-01T08:20:54.171Z,13.18
2023-01-01T08:23:20.868Z,13.15
2023-01-01T08:25:47.536Z,13.17
2023-01-01T08:28:14.173Z,13.20
2023-01-01T08:30:40.852Z,13.18
2023-01-01T08:33:07.478Z,13.17
2023-01-01T08:35:37.891Z,13.17
2023-01-01T08:38:05.741Z,13.23
2023-01-01T08:40:32.503Z,13.21
2023-01-01T08:42:59.161Z,13.15
2023-01-01T08:45:25.928Z,13.18
2023-01-01T08:47:52.685Z,13.17
2023-01-01T08:50:19.424Z,13.17
2023-01-01T08:52:46.078Z,13.17
2023-01-01T08:55:12.770Z,13.18
2023-01-01T08:57:39.437Z,13.19
2023-01-01T09:00:09.549Z,13.21
2023-01-01T09:02:36.375Z,13.23
2023-01-01T09:05:03.358Z,13.27
2023-01-01T09:07:30.115Z,13.26
2023-01-01T09:09:56.776Z,13.26
2023-01-01T09:12:23.465Z,13.27
2023-01-01T09:14:50.178Z,13.25
2023-01-01T09:17:17.104Z,13.26
2023-01-01T09:19:43.887Z,13.25
2023-01-01T09:22:11.652Z,13.28
2023-01-01T09:24:38.468Z,13.29
2023-01-01T09:27:05.397Z,13.27
2023-01-01T09:29:32.230Z,13.29
2023-01-01T09:31:58.903Z,13.27
2023-01-01T09:34:25.643Z,13.26
2023-01-01T09:36:52.315Z,13.30
2023-01-01T09:39:18.967Z,13.35
2023-01-01T09:42:16.846Z,13.37
2023-01-01T09:45:15.319Z,13.33
2023-01-01T09:47:47.341Z,13.33
2023-01-01T09:50:46.323Z,13.33
2023-01-01T09:53:32.628Z,13.31
2023-01-01T09:56:04.627Z,13.31
2023-01-01T09:58:37.578Z,13.28
2023-01-01T10:01:31.678Z,13.25
2023-01-01T10:04:04.798Z,13.24
2023-01-01T10:06:34.333Z,13.26
2023-01-01T10:09:26.553Z,13.22
2023-01-01T10:11:59.200Z,13.25
2023-01-01T10:14:45.794Z,13.26
2023-01-01T10:17:31.971Z,13.27
2023-01-01T10:20:06.459Z,13.27
2023-01-01T10:22:47.467Z,13.31
2023-01-01T10:25:27.837Z,13.29
2023-01-01T10:28:01.002Z,13.29
2023-01-01T10:30:29.678Z,13.29
2023-01-01T10:32:57.771Z,13.29
2023-01-01T10:35:58.614Z,13.27
2023-01-01T10:38:27.000Z,13.31
2023-01-01T10:41:03.960Z,13.30
2023-01-01T10:43:30.682Z,13.26
2023-01-01T10:45:59.920Z,13.25
2023-01-01T10:48:30.509Z,13.25
2023-01-01T10:51:07.933Z,13.27
2023-01-01T10:53:41.224Z,13.30
2023-01-01T10:56:20.458Z,13.35
2023-01-01T10:58:56.600Z,13.32
2023-01-01T11:01:31.789Z,13.36
2023-01-01T11:04:03.201Z,13.41
2023-01-01T11:06:39.417Z,13.38
2023-01-01T11:09:36.864Z,13.37
2023-01-01T11:12:15.232Z,13.39
2023-01-01T11:14:55.222Z,13.40
2023-01-01T11:17:29.422Z,13.41
2023-01-01T11:20:01.725Z,13.46
2023-01-01T11:22:46.857Z,13.41
2023-01-01T11:25:28.612Z,13.41
2023-01-01T11:28:35.260Z,13.34
2023-01-01T11:31:09.844Z,13.38
2023-01-01T11:33:52.489Z,13.35
2023-01-01T11:36:29.324Z,13.39
2023-01-01T11:39:14.239Z,13.37
2023-01-01T11:41:47.260Z,13.38
2023-01-01T11:44:36.138Z,13.40
2023-01-01T11:47:05.893Z,13.42
2023-01-01T11:49:33.359Z,13.44
2023-01-01T11:52:00.628Z,13.43
2023-01-01T11:54:31.090Z,13.42
2023-01-01T11:57:22.277Z,13.46
2023-01-01T11:59:56.229Z,13.47
2023-01-01T12:02:35.605Z,13.50
2023-01-01T12:05:25.012Z,13.49
2023-01-01T12:07:52.928Z,13.49
2023-01-01T12:10:30.393Z,13.49
2023-01-01T12:13:22.257Z,13.49
2023-01-01T12:16:11.358Z,13.47
2023-01-01T12:19:00.897Z,13.50
2023-01-01T12:21:29.313Z,13.49
2023-01-01T12:23:56.037Z,13.48
2023-01-01T12:26:30.027Z,13.48
2023-01-01T12:29:13.455Z,13.48
2023-01-01T12:32:23.125Z,13.46
2023-01-01T12:35:25.125Z,13.43
2023-01-01T12:38:15.371Z,13.39
2023-01-01T12:41:15.662Z,13.42
2023-01-01T12:44:16.191Z,13.45
2023-01-01T12:47:08.847Z,13.47
2023-01-01T12:49:44.106Z,13.43
2023-01-01T12:53:00.435Z,13.43
2023-01-01T12:55:57.545Z,13.42
2023-01-01T12:58:36.145Z,13.41
2023-01-01T13:01:33.435Z,13.38
2023-01-01T13:04:05.938Z,13.36
2023-01-01T13:06:49.184Z,13.37
2023-01-01T13:09:21.849Z,13.32
2023-01-01T13:12:13.608Z,13.32
2023-01-01T13:14:45.187Z,13.27
2023-01-01T13:17:29.357Z,13.25
2023-01-01T13:20:14.686Z,13.26
2023-01-01T13:22:44.045Z,13.24
2023-01-01T13:25:16.587Z,13.29
2023-01-01T13:28:03.373Z,13.25
2023-01-01T13:30:39.679Z,13.23
2023-01-01T13:33:29.970Z,13.21
2023-01-01T13:36:09.296Z,13.27
2023-01-01T13:38:55.989Z,13.25
2023-01-01T13:41:35.361Z,13.26
2023-01-01T13:44:03.139Z,13.23
2023-01-01T13:46:32.921Z,13.23
2023-01-01T13:49:18.685Z,13.22
2023-01-01T13:52:19.851Z,13.23
2023-01-01T13:55:04.804Z,13.23
2023-01-01T13:58:15.254Z,13.20
2023-01-01T14:01:13.048Z,13.17
2023-01-01T14:03:46.547Z,13.17
2023-01-01T14:06:20.733Z,13.16
2023-01-01T14:09:20.617Z,13.09
2023-01-01T14:11:48.537Z,13.10
2023-01-01T14:14:24.234Z,13.10
2023-01-01T14:16:53.773Z,13.09
2023-01-01T14:19:21.102Z,13.07
2023-01-01T14:21:48.135Z,13.07
2023-01-01T14:24:18.181Z,13.08
2023-01-01T14:26:45.377Z,13.05
2023-01-01T14:29:41.719Z,13.07
2023-01-01T14:32:22.693Z,13.06
2023-01-01T14:35:02.148Z,13.04
2023-01-01T14:37:28.877Z,13.02
2023-01-01T14:40:29.548Z,12.93
2023-01-01T14:43:05.577Z,12.96
2023-01-01T14:45:36.342Z,12.93
2023-01-01T14:48:04.250Z,12.93
2023-01-01T14:50:34.147Z,12.91
2023-01-01T14:53:18.759Z,12.89
2023-01-01T14:55:47.672Z,12.87
2023-01-01T14:58:25.314Z,12.83
2023-01-01T15:00:53.070Z,12.80
2023-01-01T15:03:23.415Z,12.78
2023-01-01T15:06:02.805Z,12.78
2023-01-01T15:08:29.762Z,12.74
2023-01-01T15:10:57.385Z,12.68
2023-01-01T15:13:28.376Z,12.65
2023-01-01T15:15:57.723Z,12.69
2023-01-01T15:18:43.290Z,12.65
2023-01-01T15:21:13.905Z,12.59
2023-01-01T15:23:54.029Z,12.51
2023-01-01T15:26:57.528Z,12.45
2023-01-01T15:29:29.682Z,12.39
2023-01-01T15:32:08.819Z,12.34
2023-01-01T15:35:24.858Z,12.26
2023-01-01T15:38:17.522Z,12.13
2023-01-01T15:40:49.402Z,12.10
2023-01-01T15:43:29.669Z,12.07
2023-01-01T15:45:59.113Z,12.03
2023-01-01T15:48:43.447Z,12.02
2023-01-01T15:51:25.699Z,11.94
2023-01-01T15:54:01.862Z,11.90
2023-01-01T15:56:39.415Z,11.83
2023-01-01T15:59:23.764Z,11.80
2023-01-01T16:01:51.489Z,11.79
2023-01-01T16:04:29.043Z,11.72
2023-01-01T16:06:57.906Z,11.80
2023-01-01T16:09:24.649Z,11.67
2023-01-01T16:11:57.166Z,11.54
2023-01-01T16:14:24.334Z,11.50
2023-01-01T16:17:00.430Z,11.42
2023-01-01T16:19:30.267Z,11.40
2023-01-01T16:21:57.106Z,11.29
2023-01-01T16:24:24.621Z,11.18
2023-01-01T16:26:53.058Z,11.13
2023-01-01T16:29:19.777Z,11.08
2023-01-01T16:31:48.055Z,11.05
2023-01-01T16:34:15.238Z,11.06
2023-01-01T16:36:43.538Z,11.03
2023-01-01T16:39:11.114Z,11.04
2023-01-01T16:41:42.431Z,11.11
2023-01-01T16:44:14.499Z,11.08
2023-01-01T16:46:42.115Z,11.08
2023-01-01T16:49:08.962Z,11.08
2023-01-01T16:51:35.878Z,11.06
2023-01-01T16:54:03.262Z,11.00
2023-01-01T16:56:30.238Z,10.96
2023-01-01T16:59:02.881Z,10.92
2023-01-01T17:01:30.632Z,10.76
2023-01-01T17:03:57.522Z,10.61
2023-01-01T17:06:24.255Z,10.53
2023-01-01T17:08:51.085Z,10.42
2023-01-01T17:11:18.746Z,10.46
2023-01-01T17:13:47.931Z,10.31
2023-01-01T17:16:25.235Z,10.33
2023-01-01T17:21:41.958Z,10.31
2023-01-01T17:24:09.001Z,10.23
2023-01-01T17:26:35.711Z,10.24
2023-01-01T17:29:03.046Z,10.25
2023-01-01T17:31:30.152Z,10.31
2023-01-01T17:33:57.064Z,10.26
2023-01-01T17:36:23.975Z,10.16
2023-01-01T17:38:50.689Z,10.13
2023-01-01T17:41:18.195Z,10.22
2023-01-01T17:43:48.184Z,10.26
2023-01-01T17:46:33.593Z,10.24
2023-01-01T17:49:02.320Z,10.22
2023-01-01T17:51:29.811Z,10.15
2023-01-01T17:53:56.983Z,10.26
2023-01-01T17:56:24.992Z,10.15
2023-01-01T17:58:53.867Z,10.19
2023-01-01T18:01:23.843Z,10.20
2023-01-01T18:04:05.919Z,10.14
2023-01-01T18:06:40.255Z,10.05
2023-01-01T18:09:12.584Z,10.07
2023-01-01T18:11:40.137Z,10.15
2023-01-01T18:14:07.160Z,10.03
2023-01-01T18:16:36.692Z,10.06
2023-01-01T18:19:05.226Z,10.07
2023-01-01T18:21:33.582Z,10.07
2023-01-01T18:24:01.626Z,10.02
2023-01-01T18:26:30.983Z,9.95
2023-01-01T18:29:01.208Z,10.04
2023-01-01T18:31:31.213Z,10.00
2023-01-01T18:33:58.157Z,9.96
2023-01-01T18:36:31.930Z,10.11
2023-01-01T18:39:21.723Z,10.05
2023-01-01T18:41:48.285Z,9.98
2023-01-01T18:44:22.666Z,9.92
2023-01-01T18:47:14.359Z,9.90
2023-01-01T18:49:48.595Z,9.99
2023-01-01T18:52:20.457Z,9.98
2023-01-01T18:54:47.561Z,10.04
2023-01-01T18:57:29.212Z,10.06
2023-01-01T19:00:00.313Z,10.04
2023-01-01T19:02:39.173Z,9.99
2023-01-01T19:05:17.310Z,9.94
2023-01-01T19:07:57.887Z,9.93
2023-01-01T19:10:25.333Z,10.00
2023-01-01T19:12:54.910Z,9.99
2023-01-01T19:15:22.128Z,9.98
2023-01-01T19:17:49.517Z,10.00
2023-01-01T19:20:20.068Z,10.01
2023-01-01T19:22:47.686Z,10.03
2023-01-01T19:25:36.747Z,10.05
2023-01-01T19:28:32.473Z,10.10
2023-01-01T19:31:00.487Z,10.06
2023-01-01T19:33:27.779Z,10.09
2023-01-01T19:35:54.458Z,10.05
2023-01-01T19:38:21.305Z,10.01
2023-01-01T19:40:48.568Z,10.04
2023-01-01T19:43:15.299Z,10.03
2023-01-01T19:45:41.997Z,10.03
2023-01-01T19:48:08.713Z,10.03
2023-01-01T19:50:35.463Z,10.02
2023-01-01T19:53:02.146Z,10.03
2023-01-01T19:55:28.821Z,10.02
2023-01-01T19:57:55.547Z,10.05
2023-01-01T20:00:22.840Z,10.05
2023-01-01T20:02:49.934Z,10.02
2023-01-01T20:05:16.852Z,10.03
2023-01-01T20:07:43.550Z,10.03
2023-01-01T20:10:10.777Z,10.02
2023-01-01T20:12:37.448Z,10.01
2023-01-01T20:15:04.768Z,10.01
2023-01-01T20:17:31.594Z,10.00
2023-01-01T20:19:58.522Z,10.03
2023-01-01T20:22:25.413Z,10.01
2023-01-01T20:24:52.218Z,9.99
2023-01-01T20:27:24.180Z,10.01
2023-01-01T20:29:51.538Z,9.99
2023-01-01T20:32:18.580Z,9.95
2023-01-01T20:34:45.429Z,9.97
2023-01-01T20:37:30.767Z,9.99
2023-01-01T20:39:57.509Z,10.00
2023-01-01T20:42:25.334Z,9.99
2023-01-01T20:44:52.088Z,10.00
2023-01-01T20:47:18.823Z,10.05
2023-01-01T20:49:45.499Z,10.04
2023-01-01T20:52:12.303Z,10.04
2023-01-01T20:54:38.961Z,10.04
2023-01-01T20:57:05.758Z,10.05
2023-01-01T20:59:37.316Z,10.08
2023-01-01T21:02:11.149Z,10.05
2023-01-01T21:04:39.591Z,10.05
2023-01-01T21:07:09.158Z,10.08
2023-01-01T21:09:36.949Z,10.12
2023-01-01T21:12:04.295Z,10.13
2023-01-01T21:14:31.318Z,10.13
2023-01-01T21:17:18.405Z,10.17
2023-01-01T21:19:45.340Z,10.17
2023-01-01T21:22:12.955Z,10.27
2023-01-01T21:24:40.027Z,10.23
2023-01-01T21:27:23.942Z,10.24
2023-01-01T21:29:53.587Z,10.20
2023-01-01T21:32:42.778Z,10.28
2023-01-01T21:35:32.816Z,10.29
2023-01-01T21:38:00.163Z,10.28
2023-01-01T21:40:41.875Z,10.30
2023-01-01T21:43:08.456Z,10.31
2023-01-01T21:45:40.685Z,10.35
2023-01-01T21:48:19.534Z,10.33
2023-01-01T21:50:48.436Z,10.34
2023-01-01T21:53:22.252Z,10.37
2023-01-01T21:55:54.491Z,10.40
2023-01-01T21:58:51.386Z,10.39
2023-01-01T22:01:25.584Z,10.46
2023-01-01T22:04:00.053Z,10.40
2023-01-01T22:06:38.848Z,10.44
2023-01-01T22:09:29.076Z,10.46
2023-01-01T22:12:24.275Z,10.51
2023-01-01T22:14:55.161Z,10.51
2023-01-01T22:17:36.749Z,10.54
2023-01-01T22:20:19.805Z,10.64
2023-01-01T22:22:46.484Z,10.59
2023-01-01T22:25:27.459Z,10.65
2023-01-01T22:27:54.784Z,10.60
2023-01-01T22:30:42.673Z,10.63
2023-01-01T22:33:18.066Z,10.58
2023-01-01T22:35:45.661Z,10.72
2023-01-01T22:38:20.988Z,10.82
2023-01-01T22:40:50.492Z,10.73
2023-01-01T22:43:22.539Z,10.88
2023-01-01T22:45:49.986Z,10.81
2023-01-01T22:48:31.666Z,10.73
2023-01-01T22:51:06.499Z,10.77
2023-01-01T22:53:33.281Z,10.76
2023-01-01T22:55:59.962Z,10.73
2023-01-01T22:58:26.643Z,10.63
2023-01-01T23:00:53.423Z,10.74
2023-01-01T23:03:20.145Z,10.71
2023-01-01T23:05:46.967Z,10.66
2023-01-01T23:08:13.633Z,10.67
2023-01-01T23:10:40.346Z,10.64
2023-01-01T23:13:25.405Z,10.57
2023-01-01T23:16:00.993Z,10.75
2023-01-01T23:18:35.977Z,10.85
2023-01-01T23:21:08.769Z,10.82
2023-01-01T23:23:36.781Z,10.81
2023-01-01T23:26:04.981Z,10.82
2023-01-01T23:28:32.339Z,10.80
2023-01-01T23:31:02.487Z,10.78
2023-01-01T23:33:30.253Z,10.77
2023-01-01T23:35:57.219Z,10.78
2023-01-01T23:38:24.750Z,10.80
2023-01-01T23:40:51.455Z,10.80
2023-01-01T23:43:18.208Z,10.79
2023-01-01T23:45:46.220Z,10.84
2023-01-01T23:48:13.877Z,11.07
2023-01-01T23:50:40.664Z,11.06
2023-01-01T23:53:08.868Z,11.47
2023-01-01T23:55:35.552Z,11.47
2023-01-01T23:58:02.297Z,11.65
